Time;durP1;ratioP1;P1;durP2;ratioP2;P2;SDS_P1;SDS_P2;PMS_P1;PMS_P2;Temp;Humidity;BMP_temperature;BMP_pressure;BME280_temperature;BME280_humidity;BME280_pressure;Samples;Min_cycle;Max_cycle;Signal;HPM_P1;HPM_P2
2021/10/11 00:01:58;;;;;;;21.58;11.40;;;2.50;87.00;;;;;;5051662;28;20040;-71
2021/10/11 00:04:23;;;;;;;18.60;11.55;;;2.50;87.10;;;;;;5051498;28;20028;-70
2021/10/11 00:06:49;;;;;;;27.00;11.02;;;2.40;87.10;;;;;;5050437;28;20116;-70
2021/10/11 00:09:15;;;;;;;19.35;11.35;;;2.50;87.10;;;;;;5051489;28;20033;-69
2021/10/11 00:11:40;;;;;;;19.35;11.82;;;2.50;87.00;;;;;;5051343;28;20065;-69
2021/10/11 00:14:06;;;;;;;23.75;11.48;;;2.50;87.10;;;;;;5051371;28;20102;-70
2021/10/11 00:16:31;;;;;;;17.42;10.63;;;2.60;86.80;;;;;;5051467;28;20470;-69
2021/10/11 00:18:57;;;;;;;22.67;11.57;;;2.50;86.80;;;;;;5051526;28;20028;-69
2021/10/11 00:21:22;;;;;;;16.25;10.95;;;2.50;86.80;;;;;;5051445;28;20036;-69
2021/10/11 00:23:48;;;;;;;18.70;10.90;;;2.50;86.90;;;;;;5051096;28;20036;-70
2021/10/11 00:26:14;;;;;;;21.80;10.63;;;2.40;87.00;;;;;;5051398;28;20039;-70
2021/10/11 00:28:39;;;;;;;20.70;11.93;;;2.40;87.10;;;;;;5050114;28;20083;-70
2021/10/11 00:31:05;;;;;;;19.08;12.20;;;2.30;87.10;;;;;;5051328;28;20036;-70
2021/10/11 00:33:30;;;;;;;21.55;11.98;;;2.20;87.40;;;;;;5051165;28;20396;-70
2021/10/11 00:35:56;;;;;;;19.33;11.20;;;2.20;87.80;;;;;;5051318;28;20040;-70
2021/10/11 00:38:21;;;;;;;21.90;11.70;;;2.20;87.80;;;;;;5051248;28;20024;-70
2021/10/11 00:40:47;;;;;;;18.48;10.52;;;2.20;87.90;;;;;;5051221;28;20032;-69
2021/10/11 00:43:13;;;;;;;18.73;11.55;;;2.20;87.70;;;;;;5050951;28;20037;-70
2021/10/11 00:45:39;;;;;;;21.45;11.05;;;2.20;87.50;;;;;;5049953;28;20032;-70
2021/10/11 00:48:05;;;;;;;21.00;11.68;;;2.30;87.00;;;;;;5051143;28;20029;-70
2021/10/11 00:50:30;;;;;;;22.13;11.88;;;2.40;86.60;;;;;;5051191;28;20029;-70
2021/10/11 00:52:57;;;;;;;22.10;12.15;;;2.40;86.60;;;;;;5050756;28;20028;-70
2021/10/11 00:55:23;;;;;;;21.38;11.48;;;2.40;86.50;;;;;;5051232;28;20395;-70
2021/10/11 00:57:49;;;;;;;22.52;11.70;;;2.40;86.30;;;;;;5051099;28;20028;-70
2021/10/11 01:00:15;;;;;;;30.35;13.93;;;2.40;86.50;;;;;;5051079;28;20033;-69
2021/10/11 01:02:40;;;;;;;18.42;11.80;;;2.50;86.60;;;;;;5049590;28;20090;-70
2021/10/11 01:05:09;;;;;;;18.08;11.63;;;2.60;86.50;;;;;;5051065;28;20457;-70
2021/10/11 01:07:34;;;;;;;22.33;11.52;;;2.50;86.50;;;;;;5051023;28;20029;-70
2021/10/11 01:10:00;;;;;;;21.30;12.10;;;2.30;86.70;;;;;;5045753;28;20116;-70
2021/10/11 01:12:25;;;;;;;18.92;11.63;;;2.30;87.00;;;;;;5034295;28;20037;-70
2021/10/11 01:14:51;;;;;;;20.92;12.38;;;2.40;86.80;;;;;;5034659;28;20037;-70
2021/10/11 01:17:17;;;;;;;19.17;11.25;;;2.40;86.70;;;;;;5034519;28;20076;-70
2021/10/11 01:19:50;;;;;;;19.35;10.63;;;2.40;86.50;;;;;;5034489;28;20079;-70
2021/10/11 01:22:19;;;;;;;20.95;10.55;;;2.40;86.30;;;;;;5038633;28;20108;-70
2021/10/11 01:24:46;;;;;;;19.70;12.05;;;2.40;86.30;;;;;;5050131;28;20466;-70
2021/10/11 01:27:12;;;;;;;18.75;12.00;;;2.30;86.40;;;;;;5049948;28;20082;-70
2021/10/11 01:29:37;;;;;;;19.67;11.23;;;2.20;86.60;;;;;;5054326;28;20104;-70
2021/10/11 01:32:03;;;;;;;15.52;9.90;;;2.20;86.80;;;;;;5052644;28;20542;-70
2021/10/11 01:34:29;;;;;;;19.00;12.10;;;2.10;86.90;;;;;;5054053;28;20076;-70
2021/10/11 01:36:54;;;;;;;20.58;11.00;;;2.10;87.10;;;;;;5054058;28;20060;-70
2021/10/11 01:39:20;;;;;;;19.52;10.63;;;2.10;87.00;;;;;;5054072;28;20104;-70
2021/10/11 01:41:45;;;;;;;19.25;11.55;;;2.20;86.80;;;;;;5052651;28;20397;-70
2021/10/11 01:44:11;;;;;;;20.30;12.10;;;2.20;86.70;;;;;;5053800;28;20028;-70
2021/10/11 01:46:36;;;;;;;20.83;11.10;;;2.20;86.80;;;;;;5053947;28;20036;-70
2021/10/11 01:49:03;;;;;;;20.08;11.38;;;2.20;87.00;;;;;;5053914;28;20185;-70
2021/10/11 01:51:29;;;;;;;20.17;12.40;;;2.10;86.90;;;;;;5053862;28;20035;-70
2021/10/11 01:53:54;;;;;;;18.65;12.13;;;2.00;87.20;;;;;;5053839;28;20611;-71
2021/10/11 01:56:20;;;;;;;17.80;10.90;;;2.00;87.30;;;;;;5053775;28;20029;-70
2021/10/11 01:58:45;;;;;;;25.05;12.40;;;2.00;87.50;;;;;;5052500;28;20028;-70
2021/10/11 02:01:11;;;;;;;21.13;11.35;;;2.00;87.80;;;;;;5052367;28;20017;-70
2021/10/11 02:03:36;;;;;;;18.02;11.25;;;1.90;87.80;;;;;;5053347;28;20025;-70
2021/10/11 02:06:02;;;;;;;21.85;11.52;;;1.80;87.90;;;;;;5053702;28;20036;-70
2021/10/11 02:08:28;;;;;;;18.92;11.65;;;1.80;88.10;;;;;;5053564;28;20032;-70
2021/10/11 02:10:53;;;;;;;18.55;11.98;;;1.80;88.40;;;;;;5053492;28;20028;-70
2021/10/11 02:13:19;;;;;;;20.05;11.30;;;1.80;88.20;;;;;;5051962;28;20041;-70
2021/10/11 02:15:44;;;;;;;20.70;11.40;;;1.70;88.20;;;;;;5053535;28;20029;-70
2021/10/11 02:18:10;;;;;;;22.48;11.82;;;1.60;88.20;;;;;;5053456;28;20033;-70
2021/10/11 02:20:36;;;;;;;19.10;11.80;;;1.70;88.50;;;;;;5053602;28;20095;-70
2021/10/11 02:23:02;;;;;;;24.48;12.10;;;1.70;88.60;;;;;;5050964;28;20482;-70
2021/10/11 02:25:28;;;;;;;25.92;12.27;;;1.70;88.50;;;;;;5053405;28;20064;-70
2021/10/11 02:27:54;;;;;;;21.17;11.30;;;1.80;88.30;;;;;;5053222;28;20075;-70
2021/10/11 02:30:19;;;;;;;18.13;10.98;;;1.70;88.30;;;;;;5053187;28;20028;-70
2021/10/11 02:32:45;;;;;;;21.33;12.70;;;1.70;88.20;;;;;;5052943;28;20027;-70
2021/10/11 02:35:11;;;;;;;21.10;11.85;;;1.60;88.40;;;;;;5053282;28;20078;-70
2021/10/11 02:37:37;;;;;;;21.13;12.63;;;1.60;88.50;;;;;;5053049;28;20025;-70
2021/10/11 02:40:03;;;;;;;20.02;11.52;;;1.60;88.60;;;;;;5052989;28;20025;-70
2021/10/11 02:42:29;;;;;;;19.45;11.55;;;1.60;88.70;;;;;;5052701;28;20028;-70
2021/10/11 02:44:54;;;;;;;22.77;12.05;;;1.60;88.90;;;;;;5051717;28;20028;-70
2021/10/11 02:47:20;;;;;;;20.60;12.30;;;1.60;88.90;;;;;;5052904;28;20032;-70
2021/10/11 02:49:46;;;;;;;20.25;11.85;;;1.60;88.80;;;;;;5052959;28;20025;-70
2021/10/11 02:52:11;;;;;;;19.77;12.75;;;1.60;88.80;;;;;;5052460;28;20486;-70
2021/10/11 02:54:37;;;;;;;24.10;12.90;;;1.50;89.00;;;;;;5052754;28;20029;-70
2021/10/11 02:57:03;;;;;;;25.30;12.38;;;1.50;89.20;;;;;;5051374;28;20116;-70
2021/10/11 02:59:29;;;;;;;18.90;11.73;;;1.60;89.50;;;;;;5052662;28;20053;-70
2021/10/11 03:01:55;;;;;;;23.98;12.95;;;1.60;89.20;;;;;;5052448;28;20466;-70
2021/10/11 03:04:20;;;;;;;19.65;12.07;;;1.60;89.30;;;;;;5052240;28;20024;-70
2021/10/11 03:06:46;;;;;;;19.65;12.50;;;1.60;89.20;;;;;;5052556;28;20036;-70
2021/10/11 03:09:11;;;;;;;23.67;11.82;;;1.60;89.20;;;;;;5052371;28;20029;-70
2021/10/11 03:11:37;;;;;;;21.08;12.20;;;1.60;89.10;;;;;;5052219;28;20033;-70
2021/10/11 03:14:02;;;;;;;19.60;11.68;;;1.60;89.10;;;;;;5052132;28;20025;-70
2021/10/11 03:16:28;;;;;;;23.63;13.18;;;1.60;89.10;;;;;;5050846;28;20070;-70
2021/10/11 03:18:53;;;;;;;21.55;12.48;;;1.60;89.40;;;;;;5052269;28;20025;-70
2021/10/11 03:21:21;;;;;;;21.83;12.25;;;1.50;89.40;;;;;;5052169;28;20021;-70
2021/10/11 03:23:49;;;;;;;18.05;10.90;;;1.50;89.60;;;;;;5050462;28;20033;-70
2021/10/11 03:26:14;;;;;;;19.45;11.85;;;1.50;89.50;;;;;;5046362;28;20025;-70
2021/10/11 03:28:40;;;;;;;65.90;30.98;;;1.50;89.70;;;;;;5030869;28;20025;-70
2021/10/11 03:31:06;;;;;;;27.65;13.93;;;1.40;89.80;;;;;;5032114;28;20037;-70
2021/10/11 03:33:31;;;;;;;20.17;13.00;;;1.40;90.20;;;;;;5032152;28;20040;-70
2021/10/11 03:35:57;;;;;;;25.92;13.30;;;1.40;90.10;;;;;;5032310;28;20034;-69
2021/10/11 03:38:22;;;;;;;20.92;14.18;;;1.30;90.10;;;;;;5047609;28;20036;-70
2021/10/11 03:40:48;;;;;;;28.98;15.68;;;1.30;90.30;;;;;;5032120;28;20509;-70
2021/10/11 03:43:14;;;;;;;23.13;14.25;;;1.40;90.40;;;;;;5030713;28;20025;-70
2021/10/11 03:45:39;;;;;;;24.95;13.15;;;1.40;90.40;;;;;;5031938;28;20541;-70
2021/10/11 03:48:05;;;;;;;20.02;12.23;;;1.40;90.20;;;;;;5031925;28;20041;-70
2021/10/11 03:50:31;;;;;;;24.27;13.30;;;1.40;90.20;;;;;;5031964;28;20493;-70
2021/10/11 03:52:56;;;;;;;24.92;14.05;;;1.40;90.30;;;;;;5031550;28;20092;-70
2021/10/11 03:55:22;;;;;;;26.40;13.73;;;1.40;90.40;;;;;;5031900;28;20030;-70
2021/10/11 03:57:47;;;;;;;34.35;17.55;;;1.40;90.60;;;;;;5031903;28;20047;-70
2021/10/11 04:00:13;;;;;;;35.92;17.70;;;1.40;90.60;;;;;;5031687;28;20032;-70
2021/10/11 04:02:39;;;;;;;18.70;12.23;;;1.40;90.60;;;;;;5031547;28;20101;-70
2021/10/11 04:05:06;;;;;;;23.52;14.52;;;1.40;90.70;;;;;;5031678;28;20025;-70
2021/10/11 04:07:32;;;;;;;22.52;13.55;;;1.50;90.80;;;;;;5031720;28;20418;-70
2021/10/11 04:10:01;;;;;;;23.55;13.70;;;1.60;90.50;;;;;;5031835;28;20025;-70
2021/10/11 04:12:34;;;;;;;24.98;13.48;;;1.70;90.30;;;;;;5031269;28;20503;-70
2021/10/11 04:15:04;;;;;;;22.42;13.13;;;1.70;90.00;;;;;;5031769;28;20021;-70
2021/10/11 04:17:30;;;;;;;20.90;13.20;;;1.70;89.90;;;;;;5031457;28;20025;-70
2021/10/11 04:19:56;;;;;;;21.05;13.25;;;1.80;89.80;;;;;;5031702;28;20029;-71
2021/10/11 04:22:21;;;;;;;21.27;12.88;;;1.80;89.90;;;;;;5036404;28;20417;-71
2021/10/11 04:24:47;;;;;;;20.42;12.50;;;1.70;89.90;;;;;;5051459;28;20061;-70
2021/10/11 04:27:13;;;;;;;21.15;12.73;;;1.70;89.80;;;;;;5051357;28;20086;-72
2021/10/11 04:29:38;;;;;;;18.90;12.35;;;1.80;89.80;;;;;;5051345;28;20052;-71
2021/10/11 04:32:05;;;;;;;20.70;12.43;;;1.80;89.80;;;;;;5048840;28;20044;-71
2021/10/11 04:34:31;;;;;;;21.17;12.80;;;1.80;89.80;;;;;;5039859;28;20480;-71
2021/10/11 04:36:57;;;;;;;24.85;16.00;;;1.90;89.70;;;;;;5051399;28;20115;-71
2021/10/11 04:39:22;;;;;;;22.98;13.40;;;1.90;89.80;;;;;;5039433;28;20021;-70
2021/10/11 04:41:48;;;;;;;20.02;13.85;;;1.80;90.00;;;;;;5030037;28;20402;-70
2021/10/11 04:44:13;;;;;;;22.52;13.27;;;2.00;90.40;;;;;;5031115;28;20064;-70
2021/10/11 04:46:39;;;;;;;20.05;12.32;;;2.10;90.40;;;;;;5032706;28;20032;-70
2021/10/11 04:49:05;;;;;;;21.20;12.45;;;2.10;90.00;;;;;;5035157;28;20021;-70
2021/10/11 04:51:30;;;;;;;22.77;13.18;;;2.00;90.00;;;;;;5034897;28;20514;-70
2021/10/11 04:53:56;;;;;;;21.05;12.95;;;2.00;89.80;;;;;;5034560;28;20025;-71
2021/10/11 04:56:22;;;;;;;18.75;13.13;;;1.90;89.80;;;;;;5034815;28;20530;-70
2021/10/11 04:58:47;;;;;;;21.23;13.07;;;1.90;89.80;;;;;;5034912;28;20067;-70
2021/10/11 05:01:13;;;;;;;23.95;13.35;;;1.90;90.10;;;;;;5037173;28;20488;-70
2021/10/11 05:03:38;;;;;;;21.98;12.80;;;1.90;90.00;;;;;;5054768;28;20502;-71
2021/10/11 05:06:04;;;;;;;20.80;13.13;;;1.90;90.00;;;;;;5054616;28;20025;-71
2021/10/11 05:08:30;;;;;;;22.85;12.93;;;1.90;90.10;;;;;;5054250;28;20029;-70
2021/10/11 05:10:56;;;;;;;26.85;13.00;;;2.00;90.30;;;;;;5053071;28;20047;-70
2021/10/11 05:13:22;;;;;;;21.65;13.15;;;2.00;90.20;;;;;;5077566;22;20049;-72
2021/10/11 05:15:47;;;;;;;21.10;12.93;;;2.00;90.30;;;;;;5035930;28;20254;-70
2021/10/11 05:18:13;;;;;;;22.33;12.70;;;2.10;90.60;;;;;;5048078;28;20040;-72
2021/10/11 05:20:45;;;;;;;18.92;13.32;;;2.20;90.50;;;;;;5036443;28;20448;-71
2021/10/11 05:23:10;;;;;;;19.35;12.60;;;2.20;90.10;;;;;;5066196;28;20119;-69
2021/10/11 05:25:36;;;;;;;22.13;12.77;;;2.30;90.00;;;;;;5055532;28;20056;-70
2021/10/11 05:28:01;;;;;;;21.55;13.75;;;2.30;90.00;;;;;;5035726;28;20045;-74
2021/10/11 05:30:27;;;;;;;24.98;14.23;;;2.40;89.10;;;;;;5051925;28;20021;-72
2021/10/11 05:32:53;;;;;;;24.25;13.50;;;2.50;88.70;;;;;;5035236;28;20032;-71
2021/10/11 05:35:18;;;;;;;24.40;13.35;;;2.60;88.00;;;;;;5053201;28;20059;-70
2021/10/11 05:37:44;;;;;;;19.75;11.68;;;2.70;88.10;;;;;;5053684;28;20033;-70
2021/10/11 05:40:10;;;;;;;21.15;12.48;;;2.90;88.30;;;;;;5035871;28;20155;-68
2021/10/11 05:42:35;;;;;;;20.52;12.23;;;3.10;87.40;;;;;;5032861;28;20030;-68
2021/10/11 05:45:02;;;;;;;20.88;12.15;;;3.60;86.80;;;;;;5053448;28;20021;-70
2021/10/11 05:47:28;;;;;;;18.23;11.05;;;4.20;86.20;;;;;;5035130;28;20051;-71
2021/10/11 05:49:54;;;;;;;17.63;11.52;;;4.90;83.30;;;;;;5053402;28;20033;-70
2021/10/11 05:52:20;;;;;;;20.40;11.63;;;5.40;80.60;;;;;;5053341;28;20044;-67
2021/10/11 05:54:45;;;;;;;18.98;10.77;;;6.00;78.10;;;;;;5053426;28;20025;-69
2021/10/11 05:57:11;;;;;;;15.98;9.68;;;6.80;75.30;;;;;;5051986;28;20036;-70
2021/10/11 05:59:36;;;;;;;20.65;10.70;;;7.10;72.60;;;;;;5047530;28;20032;-73
2021/10/11 06:02:02;;;;;;;17.15;10.15;;;7.40;72.70;;;;;;5052724;28;20044;-69
2021/10/11 06:04:28;;;;;;;14.73;9.35;;;7.60;71.50;;;;;;5053273;28;20060;-71
2021/10/11 06:06:53;;;;;;;14.55;9.45;;;7.60;69.40;;;;;;5053291;28;20079;-70
2021/10/11 06:09:19;;;;;;;13.80;9.73;;;7.20;70.00;;;;;;5053121;28;20122;-72
2021/10/11 06:11:45;;;;;;;18.33;11.25;;;6.50;71.10;;;;;;5053220;28;20033;-71
2021/10/11 06:14:11;;;;;;;26.85;11.88;;;5.80;74.30;;;;;;5051079;28;20039;-71
2021/10/11 06:16:36;;;;;;;17.77;10.35;;;5.60;75.50;;;;;;5033017;28;20021;-71
2021/10/11 06:19:02;;;;;;;21.38;11.48;;;5.00;77.20;;;;;;5033057;28;20053;-71
2021/10/11 06:21:28;;;;;;;20.05;11.50;;;4.90;78.00;;;;;;5033183;28;20025;-71
2021/10/11 06:23:55;;;;;;;15.60;10.93;;;4.60;79.00;;;;;;5068792;28;20027;-72
2021/10/11 06:26:21;;;;;;;20.00;11.52;;;4.60;79.70;;;;;;5030223;28;20033;-72
2021/10/11 06:28:46;;;;;;;25.02;12.63;;;4.60;80.10;;;;;;5032018;28;20022;-70
2021/10/11 06:31:12;;;;;;;18.20;12.07;;;4.60;80.30;;;;;;5014209;28;20475;-70
2021/10/11 06:33:37;;;;;;;18.98;11.82;;;4.70;80.60;;;;;;5013611;28;20026;-68
2021/10/11 06:36:03;;;;;;;24.48;13.68;;;4.70;80.00;;;;;;5015072;28;20026;-70
2021/10/11 06:38:28;;;;;;;19.95;12.85;;;4.70;79.90;;;;;;5032756;28;20026;-68
2021/10/11 06:40:54;;;;;;;20.45;12.32;;;4.60;80.60;;;;;;5015099;28;20022;-67
2021/10/11 06:43:20;;;;;;;20.50;11.60;;;4.70;80.60;;;;;;5032268;28;20096;-69
2021/10/11 06:45:45;;;;;;;20.88;12.23;;;4.90;80.60;;;;;;5032868;28;20033;-69
2021/10/11 06:48:11;;;;;;;23.65;14.60;;;5.00;80.40;;;;;;5032609;28;20390;-72
2021/10/11 06:50:37;;;;;;;23.13;13.88;;;4.90;80.00;;;;;;5032486;28;20352;-74
2021/10/11 06:53:03;;;;;;;25.42;14.05;;;4.80;80.50;;;;;;5031824;28;20028;-71
2021/10/11 06:55:28;;;;;;;23.23;14.35;;;4.80;80.70;;;;;;5032309;28;20037;-70
2021/10/11 06:57:54;;;;;;;26.17;14.35;;;4.80;80.80;;;;;;5032031;28;20411;-71
2021/10/11 07:00:19;;;;;;;30.13;14.35;;;4.80;80.80;;;;;;5031121;28;20022;-71
2021/10/11 07:02:45;;;;;;;30.48;14.98;;;4.70;80.80;;;;;;5031979;28;20082;-72
2021/10/11 07:05:11;;;;;;;27.13;15.30;;;4.70;80.90;;;;;;5032280;28;20545;-71
2021/10/11 07:07:40;;;;;;;22.20;13.63;;;4.80;80.80;;;;;;5030349;28;20033;-74
2021/10/11 07:10:07;;;;;;;28.52;14.50;;;5.00;80.70;;;;;;5033061;28;20142;-71
2021/10/11 07:12:33;;;;;;;23.33;13.88;;;5.00;80.30;;;;;;5051460;28;20490;-71
2021/10/11 07:14:58;;;;;;;26.85;14.55;;;5.10;80.30;;;;;;5034068;28;20166;-70
2021/10/11 07:17:24;;;;;;;25.40;13.73;;;5.10;80.40;;;;;;5033811;28;20024;-70
2021/10/11 07:19:50;;;;;;;19.95;12.38;;;5.20;80.50;;;;;;5052078;28;20035;-70
2021/10/11 07:22:16;;;;;;;24.33;13.30;;;5.50;80.40;;;;;;5038069;28;20417;-70
2021/10/11 07:24:43;;;;;;;28.25;14.43;;;5.70;80.20;;;;;;5048633;28;20053;-69
2021/10/11 07:27:09;;;;;;;32.45;15.70;;;5.90;79.70;;;;;;5032202;28;20037;-71
2021/10/11 07:29:35;;;;;;;25.40;15.13;;;5.80;78.60;;;;;;5048922;28;20078;-73
2021/10/11 07:32:02;;;;;;;22.52;13.82;;;5.80;78.30;;;;;;5050227;28;20474;-71
2021/10/11 07:34:27;;;;;;;26.00;14.52;;;6.00;78.10;;;;;;5051535;28;20078;-73
2021/10/11 07:36:53;;;;;;;26.42;14.05;;;6.30;77.30;;;;;;5051541;28;20029;-68
2021/10/11 07:39:18;;;;;;;23.15;13.95;;;6.80;75.80;;;;;;5033962;28;20029;-72
2021/10/11 07:41:44;;;;;;;27.92;14.35;;;7.00;76.00;;;;;;5033940;28;20029;-71
2021/10/11 07:44:10;;;;;;;26.42;13.80;;;7.30;74.20;;;;;;5050712;28;20021;-71
2021/10/11 07:46:37;;;;;;;30.20;14.50;;;7.70;73.40;;;;;;5048536;28;20021;-71
2021/10/11 07:49:03;;;;;;;26.00;13.45;;;8.00;72.00;;;;;;5051557;28;20113;-70
2021/10/11 07:51:29;;;;;;;34.15;14.65;;;8.10;71.30;;;;;;5051287;28;20108;-72
2021/10/11 07:53:54;;;;;;;37.72;16.55;;;8.10;71.60;;;;;;5051580;28;20021;-70
2021/10/11 07:56:20;;;;;;;36.42;15.43;;;7.90;72.10;;;;;;5051711;28;20024;-70
2021/10/11 07:58:46;;;;;;;35.95;14.05;;;7.80;72.70;;;;;;5051735;28;20017;-70
2021/10/11 08:01:11;;;;;;;35.40;14.80;;;7.80;73.10;;;;;;5045779;28;20032;-71
2021/10/11 08:03:37;;;;;;;35.92;15.77;;;7.80;73.00;;;;;;5031475;28;20037;-71
2021/10/11 08:06:07;;;;;;;48.00;14.88;;;8.00;73.10;;;;;;5045166;28;20394;-71
2021/10/11 08:08:34;;;;;;;34.30;15.30;;;8.10;72.70;;;;;;5029894;28;20420;-70
2021/10/11 08:11:00;;;;;;;36.05;16.23;;;8.30;72.50;;;;;;5030422;28;20105;-71
2021/10/11 08:13:27;;;;;;;33.55;16.05;;;8.40;72.10;;;;;;5029639;28;20044;-71
2021/10/11 08:15:52;;;;;;;36.30;15.20;;;8.60;72.60;;;;;;5030478;28;20029;-71
2021/10/11 08:18:18;;;;;;;31.27;15.13;;;8.60;71.20;;;;;;5029978;28;20048;-74
2021/10/11 08:20:45;;;;;;;34.50;14.38;;;8.80;71.30;;;;;;5032652;28;20083;-70
2021/10/11 08:23:11;;;;;;;30.10;14.93;;;8.90;71.50;;;;;;5041682;28;20528;-71
2021/10/11 08:25:37;;;;;;;33.85;15.50;;;9.00;70.80;;;;;;5055996;28;20088;-71
2021/10/11 08:28:03;;;;;;;29.67;14.40;;;9.00;70.50;;;;;;5038083;28;20474;-72
2021/10/11 08:30:29;;;;;;;25.73;15.05;;;8.90;70.50;;;;;;5035251;28;20037;-68
2021/10/11 08:32:55;;;;;;;27.20;14.88;;;8.90;71.00;;;;;;5034840;28;20025;-69
2021/10/11 08:35:20;;;;;;;25.25;13.85;;;9.00;71.30;;;;;;5017604;28;20017;-71
2021/10/11 08:37:46;;;;;;;26.30;14.20;;;9.10;70.30;;;;;;5035071;28;20025;-69
2021/10/11 08:40:12;;;;;;;22.30;14.60;;;9.50;69.50;;;;;;5035186;28;20053;-67
2021/10/11 08:42:39;;;;;;;40.22;13.98;;;9.70;68.50;;;;;;5038134;28;20033;-69
2021/10/11 08:45:07;;;;;;;26.30;13.18;;;9.70;68.30;;;;;;5035018;28;20368;-70
2021/10/11 08:47:33;;;;;;;26.48;13.93;;;9.80;68.10;;;;;;5017177;28;20025;-69
2021/10/11 08:49:58;;;;;;;27.35;14.50;;;10.10;67.80;;;;;;5017617;28;20065;-71
2021/10/11 08:52:24;;;;;;;23.98;14.23;;;10.40;67.40;;;;;;5034820;28;20040;-71
2021/10/11 08:54:54;;;;;;;25.95;13.85;;;10.50;66.60;;;;;;5035214;28;20477;-73
2021/10/11 08:57:23;;;;;;;24.17;14.07;;;10.80;67.30;;;;;;5016552;28;20432;-73
2021/10/11 08:59:50;;;;;;;20.23;13.27;;;11.20;66.20;;;;;;5052069;28;20439;-72
2021/10/11 09:02:20;;;;;;;59.05;33.85;;;11.60;65.90;;;;;;5047215;28;20155;-72
2021/10/11 09:04:52;;;;;;;63.65;32.45;;;12.00;66.20;;;;;;5017278;28;20480;-71
2021/10/11 09:07:28;;;;;;;44.05;23.23;;;12.30;65.40;;;;;;5044504;28;20123;-72
2021/10/11 09:09:55;;;;;;;27.17;18.10;;;12.40;65.20;;;;;;5054733;28;20127;-72
2021/10/11 09:12:22;;;;;;;78.20;45.72;;;12.50;64.40;;;;;;5054176;28;20029;-72
2021/10/11 09:15:07;;;;;;;36.00;21.35;;;12.80;64.80;;;;;;5036987;28;20049;-71
2021/10/11 09:17:39;;;;;;;63.40;37.38;;;13.20;63.40;;;;;;5054666;28;20021;-70
2021/10/11 09:20:31;;;;;;;42.33;25.10;;;13.30;62.90;;;;;;5039374;28;20029;-73
2021/10/11 09:23:01;;;;;;;89.60;52.33;;;13.40;62.00;;;;;;5051167;28;20035;-71
2021/10/11 09:25:39;;;;;;;41.20;24.42;;;13.30;62.80;;;;;;5074656;28;20466;-71
2021/10/11 09:28:07;;;;;;;28.23;17.27;;;13.20;62.20;;;;;;5056396;28;20028;-71
2021/10/11 09:30:36;;;;;;;65.47;42.75;;;13.00;62.80;;;;;;5056576;28;20021;-70
2021/10/11 09:33:14;;;;;;;93.68;52.72;;;13.00;63.80;;;;;;5056024;28;20032;-71
2021/10/11 09:35:41;;;;;;;45.67;27.38;;;13.00;63.60;;;;;;5056444;28;20043;-72
2021/10/11 09:38:23;;;;;;;52.60;32.00;;;12.90;63.60;;;;;;5074084;28;20024;-70
2021/10/11 09:40:54;;;;;;;46.97;28.63;;;12.90;64.30;;;;;;5056089;28;20075;-73
2021/10/11 09:43:23;;;;;;;34.38;22.10;;;12.80;64.40;;;;;;5073661;28;20037;-72
2021/10/11 09:45:52;;;;;;;32.03;20.30;;;12.70;64.60;;;;;;5074098;28;20096;-72
2021/10/11 09:48:18;;;;;;;54.60;35.58;;;12.80;64.30;;;;;;5073919;28;20016;-72
2021/10/11 09:50:44;;;;;;;45.25;27.27;;;12.80;64.70;;;;;;5073958;28;20068;-72
2021/10/11 09:53:12;;;;;;;44.60;27.52;;;12.80;64.90;;;;;;5073488;28;20029;-74
2021/10/11 09:55:40;;;;;;;44.85;29.10;;;12.60;65.80;;;;;;5045551;28;20530;-74
2021/10/11 09:58:09;;;;;;;73.18;43.60;;;12.80;66.00;;;;;;5033739;28;20024;-73
2021/10/11 10:00:35;;;;;;;44.72;29.20;;;12.80;66.00;;;;;;5033766;28;20017;-72
2021/10/11 10:03:01;;;;;;;36.08;24.33;;;12.80;65.70;;;;;;5033338;28;20096;-72
2021/10/11 10:05:34;;;;;;;37.50;21.27;;;12.80;66.50;;;;;;5015904;28;20458;-72
2021/10/11 10:08:06;;;;;;;42.72;26.20;;;12.90;66.20;;;;;;5033536;28;20025;-69
2021/10/11 10:10:34;;;;;;;43.60;29.52;;;12.90;67.10;;;;;;5033545;28;20033;-72
2021/10/11 10:13:00;;;;;;;56.92;34.78;;;12.90;66.60;;;;;;5033180;28;20059;-72
2021/10/11 10:15:36;;;;;;;47.40;29.48;;;13.00;66.60;;;;;;5033659;28;20104;-72
2021/10/11 10:18:08;;;;;;;59.78;36.78;;;13.00;66.30;;;;;;5035077;28;20076;-72
2021/10/11 10:20:35;;;;;;;40.05;26.50;;;13.10;66.20;;;;;;5033391;28;20025;-71
2021/10/11 10:23:01;;;;;;;60.78;35.40;;;13.30;65.20;;;;;;5036314;28;20509;-72
2021/10/11 10:25:28;;;;;;;64.80;44.63;;;13.40;66.20;;;;;;5073262;28;20024;-69
2021/10/11 10:28:09;;;;;;;234.70;144.43;;;13.70;64.90;;;;;;5073037;28;20016;-70
2021/10/11 10:30:35;;;;;;;79.45;50.90;;;14.20;65.10;;;;;;5073029;28;20023;-68
2021/10/11 10:33:04;;;;;;;79.75;49.40;;;14.40;62.50;;;;;;5044165;28;20033;-68
2021/10/11 10:35:37;;;;;;;135.32;65.53;;;14.60;62.70;;;;;;5015030;28;20033;-69
2021/10/11 10:38:02;;;;;;;97.75;56.53;;;14.70;62.50;;;;;;5014771;28;20095;-67
2021/10/11 10:40:31;;;;;;;38.80;27.63;;;14.90;61.20;;;;;;5032671;28;20479;-66
2021/10/11 10:43:07;;;;;;;49.55;31.58;;;15.00;60.40;;;;;;5032137;28;20597;-68
2021/10/11 10:45:35;;;;;;;46.67;29.15;;;15.00;60.10;;;;;;5032593;28;20022;-69
2021/10/11 10:48:01;;;;;;;42.42;28.55;;;15.00;60.00;;;;;;5036407;28;20021;-67
2021/10/11 10:50:30;;;;;;;41.58;26.80;;;15.10;60.00;;;;;;5032560;28;20029;-68
2021/10/11 10:52:58;;;;;;;71.47;43.35;;;15.30;59.90;;;;;;5014594;28;20017;-68
2021/10/11 10:55:25;;;;;;;42.60;26.10;;;15.50;59.60;;;;;;5032776;28;20049;-68
2021/10/11 10:58:02;;;;;;;57.55;32.05;;;15.70;58.80;;;;;;5032356;28;20068;-73
2021/10/11 11:00:28;;;;;;;43.17;29.17;;;15.70;58.10;;;;;;5014763;28;20021;-70
2021/10/11 11:02:53;;;;;;;47.33;32.00;;;15.70;58.10;;;;;;5014288;28;20026;-72
2021/10/11 11:05:22;;;;;;;47.85;30.40;;;15.80;58.40;;;;;;5036213;28;20021;-73
2021/10/11 11:07:50;;;;;;;39.88;25.90;;;15.70;58.10;;;;;;5032640;28;20021;-73
2021/10/11 11:10:21;;;;;;;31.33;20.77;;;15.90;58.30;;;;;;5015050;28;20548;-74
2021/10/11 11:12:57;;;;;;;43.42;29.42;;;15.90;57.20;;;;;;5066536;23;20155;-71
2021/10/11 11:15:24;;;;;;;47.88;31.45;;;16.00;58.20;;;;;;5071210;28;20027;-73
2021/10/11 11:17:50;;;;;;;55.83;36.35;;;15.90;57.20;;;;;;5072127;28;20047;-72
2021/10/11 11:20:20;;;;;;;44.92;29.92;;;15.70;58.50;;;;;;5062590;28;20029;-70
2021/10/11 11:22:46;;;;;;;90.47;54.63;;;15.40;58.50;;;;;;5060503;28;20074;-69
2021/10/11 11:25:12;;;;;;;43.03;28.27;;;15.10;60.70;;;;;;5070582;28;20028;-71
2021/10/11 11:27:40;;;;;;;49.65;32.42;;;14.90;60.50;;;;;;5071878;28;20051;-72
2021/10/11 11:30:12;;;;;;;35.70;24.55;;;14.60;62.30;;;;;;5071914;28;20033;-71
2021/10/11 11:32:44;;;;;;;51.40;33.92;;;14.20;64.70;;;;;;5071843;28;20088;-75
2021/10/11 11:35:34;;;;;;;48.70;31.02;;;13.80;67.10;;;;;;5070442;28;20054;-73
2021/10/11 11:38:04;;;;;;;65.47;38.65;;;13.60;68.30;;;;;;5051685;28;20119;-74
2021/10/11 11:40:36;;;;;;;53.20;34.47;;;13.20;70.50;;;;;;5051887;28;20355;-74
2021/10/11 11:43:04;;;;;;;57.25;38.28;;;13.00;70.80;;;;;;5051721;28;20099;-74
2021/10/11 11:45:44;;;;;;;45.40;30.58;;;13.00;71.80;;;;;;5051722;28;20021;-70
2021/10/11 11:48:11;;;;;;;37.25;26.17;;;12.90;70.90;;;;;;5052101;28;20065;-74
2021/10/11 11:50:38;;;;;;;53.55;34.03;;;12.70;70.80;;;;;;5050669;28;20024;-74
2021/10/11 11:53:12;;;;;;;49.35;27.90;;;12.60;71.90;;;;;;5067461;28;20016;-72
2021/10/11 11:55:39;;;;;;;41.72;27.42;;;12.50;72.00;;;;;;5071001;28;20116;-74
2021/10/11 11:58:12;;;;;;;60.13;38.70;;;12.50;72.40;;;;;;5071851;28;20033;-73
2021/10/11 12:00:43;;;;;;;42.67;26.95;;;12.30;74.30;;;;;;5071731;28;20078;-70
2021/10/11 12:03:10;;;;;;;44.35;27.73;;;12.10;74.70;;;;;;5071646;28;20466;-73
2021/10/11 12:05:36;;;;;;;50.70;31.45;;;12.00;75.90;;;;;;5071748;28;20021;-73
2021/10/11 12:08:02;;;;;;;39.60;27.20;;;12.00;75.90;;;;;;5065369;28;20107;-72
2021/10/11 12:10:28;;;;;;;41.72;27.70;;;12.00;76.00;;;;;;5071663;28;20032;-73
2021/10/11 12:12:59;;;;;;;37.92;25.73;;;12.00;76.20;;;;;;5069829;28;20032;-71
2021/10/11 12:15:25;;;;;;;39.75;26.20;;;12.00;76.70;;;;;;5071794;28;20036;-70
2021/10/11 12:18:02;;;;;;;42.33;28.33;;;12.00;76.80;;;;;;5071568;28;20056;-71
2021/10/11 12:20:47;;;;;;;48.78;30.35;;;12.00;77.80;;;;;;5071460;28;20025;-72
2021/10/11 12:23:14;;;;;;;39.00;27.42;;;12.00;78.00;;;;;;5065907;28;20083;-71
2021/10/11 12:25:41;;;;;;;46.38;30.20;;;11.90;78.80;;;;;;5051490;28;20037;-73
2021/10/11 12:28:18;;;;;;;178.35;102.03;;;11.90;78.90;;;;;;5051607;28;20029;-72
2021/10/11 12:30:46;;;;;;;49.45;31.33;;;11.90;79.50;;;;;;5051532;28;20045;-71
2021/10/11 12:33:17;;;;;;;44.70;28.20;;;11.80;79.20;;;;;;5051175;28;20470;-72